createdAt,value
2023-04-24T00:02:16.921Z,100600.78
2023-04-24T00:04:47.935Z,100597.74
2023-04-24T00:07:18.853Z,100597.91
2023-04-24T00:09:49.813Z,100594.23
2023-04-24T00:12:20.708Z,100590.27
2023-04-24T00:14:51.586Z,100589.94
2023-04-24T00:17:22.610Z,100588.18
2023-04-24T00:19:59.518Z,100594.77
2023-04-24T00:22:30.779Z,100587.64
2023-04-24T00:25:01.579Z,100586.58
2023-04-24T00:27:32.481Z,100584.10
2023-04-24T00:30:03.544Z,100580.38
2023-04-24T00:33:39.771Z,100583.47
2023-04-24T00:36:10.732Z,100578.95
2023-04-24T00:38:41.545Z,100574.41
2023-04-24T00:41:12.398Z,100572.73
2023-04-24T00:43:43.252Z,100570.02
2023-04-24T00:46:14.121Z,100566.66
2023-04-24T00:48:44.865Z,100566.95
2023-04-24T00:51:15.933Z,100565.88
2023-04-24T00:53:46.728Z,100566.56
2023-04-24T00:56:19.174Z,100566.64
2023-04-24T00:58:50.093Z,100569.08
2023-04-24T01:01:21.971Z,100565.70
2023-04-24T01:03:53.557Z,100562.58
2023-04-24T01:06:24.629Z,100561.72
2023-04-24T01:08:55.464Z,100558.00
2023-04-24T01:11:26.264Z,100559.14
2023-04-24T01:13:57.099Z,100554.34
2023-04-24T01:16:28.310Z,100557.23
2023-04-24T01:18:59.279Z,100554.80
2023-04-24T01:21:30.156Z,100551.89
2023-04-24T01:24:00.941Z,100550.11
2023-04-24T01:26:31.699Z,100547.40
2023-04-24T01:29:02.659Z,100549.27
2023-04-24T01:31:34.319Z,100545.08
2023-04-24T01:34:05.199Z,100544.89
2023-04-24T01:36:36.260Z,100545.98
2023-04-24T01:39:07.100Z,100542.55
2023-04-24T01:41:38.025Z,100545.05
2023-04-24T01:44:08.770Z,100543.39
2023-04-24T01:46:39.633Z,100538.98
2023-04-24T01:49:10.439Z,100541.94
2023-04-24T01:51:41.259Z,100532.39
2023-04-24T01:54:12.179Z,100529.75
2023-04-24T01:56:44.237Z,100529.91
2023-04-24T01:59:15.074Z,100525.17
2023-04-24T02:01:45.880Z,100528.39
2023-04-24T02:04:17.368Z,100526.42
2023-04-24T02:06:48.448Z,100523.46
2023-04-24T02:09:19.254Z,100523.25
2023-04-24T02:11:49.969Z,100516.94
2023-04-24T02:14:20.824Z,100517.94
2023-04-24T02:16:51.651Z,100515.15
2023-04-24T02:19:22.686Z,100510.73
2023-04-24T02:21:53.671Z,100511.48
2023-04-24T02:24:24.643Z,100506.98
2023-04-24T02:26:55.975Z,100504.79
2023-04-24T02:29:26.678Z,100508.25
2023-04-24T02:31:57.667Z,100507.96
2023-04-24T02:34:28.479Z,100508.48
2023-04-24T02:36:59.342Z,100503.25
2023-04-24T02:39:30.176Z,100499.92
2023-04-24T02:42:01.309Z,100496.05
2023-04-24T02:44:32.116Z,100495.69
2023-04-24T02:47:03.013Z,100495.02
2023-04-24T02:49:33.912Z,100499.06
2023-04-24T02:52:04.673Z,100505.33
2023-04-24T02:54:35.497Z,100504.20
2023-04-24T02:57:07.286Z,100502.94
2023-04-24T02:59:38.293Z,100499.60
2023-04-24T03:02:09.149Z,100494.20
2023-04-24T03:04:41.208Z,100495.70
2023-04-24T03:07:12.134Z,100497.48
2023-04-24T03:09:43.274Z,100499.28
2023-04-24T03:12:14.402Z,100498.07
2023-04-24T03:14:45.114Z,100495.23
2023-04-24T03:17:15.982Z,100494.95
2023-04-24T03:19:46.943Z,100489.92
2023-04-24T03:22:17.820Z,100485.04
2023-04-24T03:24:48.703Z,100482.77
2023-04-24T03:27:19.559Z,100482.17
2023-04-24T03:29:52.787Z,100484.90
2023-04-24T03:32:24.459Z,100496.29
2023-04-24T03:34:55.333Z,100505.23
2023-04-24T03:37:27.577Z,100514.14
2023-04-24T03:39:58.382Z,100515.35
2023-04-24T03:42:32.207Z,100523.14
2023-04-24T03:45:02.957Z,100530.59
2023-04-24T03:47:33.862Z,100533.31
2023-04-24T03:50:05.083Z,100541.52
2023-04-24T03:52:36.265Z,100541.43
2023-04-24T03:55:07.692Z,100541.27
2023-04-24T03:57:38.435Z,100541.26
2023-04-24T04:00:10.927Z,100536.65
2023-04-24T04:02:41.874Z,100538.58
2023-04-24T04:05:13.230Z,100540.25
2023-04-24T04:07:43.995Z,100536.38
2023-04-24T04:10:14.667Z,100534.66
2023-04-24T04:12:45.673Z,100537.84
2023-04-24T04:15:16.457Z,100535.73
2023-04-24T04:17:48.218Z,100537.45
2023-04-24T04:20:19.091Z,100538.85
2023-04-24T04:22:50.016Z,100535.11
2023-04-24T04:25:21.160Z,100535.29
2023-04-24T04:27:52.313Z,100537.79
2023-04-24T04:30:23.222Z,100534.34
2023-04-24T04:32:54.160Z,100538.29
2023-04-24T04:35:25.153Z,100537.76
2023-04-24T04:37:57.217Z,100538.65
2023-04-24T04:40:29.049Z,100537.27
2023-04-24T04:43:00.026Z,100533.33
2023-04-24T04:45:32.000Z,100534.50
2023-04-24T04:48:03.635Z,100533.40
2023-04-24T04:50:34.446Z,100530.11
2023-04-24T04:53:05.197Z,100535.02
2023-04-24T04:55:36.094Z,100529.80
2023-04-24T04:58:06.828Z,100528.36
2023-04-24T05:00:38.604Z,100521.46
2023-04-24T05:03:20.058Z,100520.48
2023-04-24T05:05:51.962Z,100523.60
2023-04-24T05:10:56.571Z,100527.31
2023-04-24T05:13:39.330Z,100531.05
2023-04-24T05:16:11.992Z,100529.41
2023-04-24T05:18:42.813Z,100528.70
2023-04-24T05:21:14.122Z,100524.30
2023-04-24T05:23:45.041Z,100525.13
2023-04-24T05:26:15.819Z,100519.99
2023-04-24T05:28:46.645Z,100516.27
2023-04-24T05:31:18.959Z,100515.35
2023-04-24T05:33:49.651Z,100511.17
2023-04-24T05:36:20.802Z,100510.52
2023-04-24T05:38:51.822Z,100512.00
2023-04-24T05:41:23.613Z,100515.96
2023-04-24T05:43:54.563Z,100518.92
2023-04-24T05:46:25.422Z,100521.16
2023-04-24T05:48:56.263Z,100514.50
2023-04-24T05:51:27.397Z,100512.56
2023-04-24T05:53:58.374Z,100512.59
2023-04-24T05:56:29.245Z,100512.20
2023-04-24T05:59:00.170Z,100512.93
2023-04-24T06:01:32.553Z,100514.16
2023-04-24T06:04:03.529Z,100516.45
2023-04-24T06:06:34.475Z,100513.83
2023-04-24T06:09:05.955Z,100515.46
2023-04-24T06:11:36.960Z,100515.17
2023-04-24T06:14:07.743Z,100516.14
2023-04-24T06:16:40.083Z,100516.26
2023-04-24T06:19:10.855Z,100511.62
2023-04-24T06:21:41.653Z,100503.85
2023-04-24T06:24:13.278Z,100503.98
2023-04-24T06:26:44.055Z,100503.09
2023-04-24T06:29:14.806Z,100496.98
2023-04-24T06:31:45.558Z,100488.98
2023-04-24T06:34:16.349Z,100489.27
2023-04-24T06:36:47.082Z,100488.89
2023-04-24T06:39:18.016Z,100485.20
2023-04-24T06:41:48.894Z,100483.56
2023-04-24T06:44:19.751Z,100482.46
2023-04-24T06:46:50.386Z,100486.34
2023-04-24T06:49:21.287Z,100484.36
2023-04-24T06:51:52.012Z,100488.40
2023-04-24T06:54:22.845Z,100493.00
2023-04-24T06:56:53.613Z,100492.77
2023-04-24T06:59:24.543Z,100494.58
2023-04-24T07:01:55.790Z,100499.39
2023-04-24T07:04:27.271Z,100497.15
2023-04-24T07:06:59.349Z,100493.14
2023-04-24T07:09:30.224Z,100495.77
2023-04-24T07:12:01.339Z,100498.58
2023-04-24T07:14:32.268Z,100498.42
2023-04-24T07:17:03.211Z,100505.92
2023-04-24T07:19:34.171Z,100504.36
2023-04-24T07:22:04.869Z,100504.25
2023-04-24T07:24:35.622Z,100502.49
2023-04-24T07:27:06.529Z,100499.65
2023-04-24T07:29:37.550Z,100499.84
2023-04-24T07:32:08.985Z,100493.80
2023-04-24T07:34:39.871Z,100494.98
2023-04-24T07:37:10.792Z,100499.82
2023-04-24T07:39:41.841Z,100495.67
2023-04-24T07:42:12.718Z,100497.47
2023-04-24T07:44:43.549Z,100501.18
2023-04-24T07:47:15.969Z,100501.35
2023-04-24T07:49:46.664Z,100502.43
2023-04-24T07:52:17.492Z,100500.39
2023-04-24T07:54:48.599Z,100500.87
2023-04-24T07:57:19.371Z,100503.29
2023-04-24T07:59:50.148Z,100500.00
2023-04-24T08:02:22.906Z,100497.54
2023-04-24T08:04:53.917Z,100499.64
2023-04-24T08:07:25.444Z,100496.31
2023-04-24T08:09:56.326Z,100495.98
2023-04-24T08:12:27.192Z,100499.40
2023-04-24T08:14:57.855Z,100497.21
2023-04-24T08:17:28.620Z,100495.77
2023-04-24T08:20:02.911Z,100491.05
2023-04-24T08:22:33.806Z,100489.98
2023-04-24T08:25:04.704Z,100487.66
2023-04-24T08:27:35.625Z,100489.48
2023-04-24T08:30:06.852Z,100486.78
2023-04-24T08:32:38.146Z,100485.34
2023-04-24T08:35:10.903Z,100480.06
2023-04-24T08:37:41.735Z,100478.79
2023-04-24T08:40:15.335Z,100477.67
2023-04-24T08:42:46.669Z,100477.88
2023-04-24T08:45:17.549Z,100473.84
2023-04-24T08:47:48.375Z,100476.19
2023-04-24T08:50:19.323Z,100471.95
2023-04-24T08:52:50.713Z,100466.05
2023-04-24T08:55:21.816Z,100465.06
2023-04-24T08:57:55.384Z,100468.40
2023-04-24T09:00:26.130Z,100458.53
2023-04-24T09:02:57.377Z,100457.02
2023-04-24T09:05:28.619Z,100459.73
2023-04-24T09:07:59.624Z,100457.21
2023-04-24T09:10:31.741Z,100455.27
2023-04-24T09:13:03.731Z,100449.58
2023-04-24T09:15:34.902Z,100444.85
2023-04-24T09:18:06.312Z,100447.14
2023-04-24T09:20:37.843Z,100443.92
2023-04-24T09:23:11.341Z,100442.06
2023-04-24T09:25:42.827Z,100438.35
2023-04-24T09:28:13.655Z,100439.47
2023-04-24T09:30:44.456Z,100431.45
2023-04-24T09:33:15.874Z,100428.45
2023-04-24T09:35:50.698Z,100432.88
2023-04-24T09:38:22.348Z,100430.16
2023-04-24T09:40:53.235Z,100430.49
2023-04-24T09:43:24.039Z,100423.58
2023-04-24T09:45:58.040Z,100423.48
2023-04-24T09:48:35.880Z,100419.75
2023-04-24T09:51:08.089Z,100418.30
2023-04-24T09:53:40.423Z,100414.16
2023-04-24T09:56:13.547Z,100411.91
2023-04-24T09:58:44.399Z,100409.41
2023-04-24T10:01:15.257Z,100409.17
2023-04-24T10:03:46.226Z,100410.65
2023-04-24T10:06:17.134Z,100406.38
2023-04-24T10:08:57.193Z,100408.35
2023-04-24T10:11:28.143Z,100406.57
2023-04-24T10:13:59.402Z,100402.33
2023-04-24T10:16:30.408Z,100401.55
2023-04-24T10:19:01.296Z,100397.24
2023-04-24T10:21:32.202Z,100396.08
2023-04-24T10:24:04.786Z,100390.88
2023-04-24T10:26:35.505Z,100386.29
2023-04-24T10:29:06.082Z,100384.02
2023-04-24T10:31:36.984Z,100384.22
2023-04-24T10:34:07.766Z,100386.03
2023-04-24T10:36:39.293Z,100382.48
2023-04-24T10:39:12.901Z,100375.20
2023-04-24T10:41:43.727Z,100379.51
2023-04-24T10:44:15.102Z,100379.75
2023-04-24T10:46:47.035Z,100381.25
2023-04-24T10:49:17.670Z,100374.77
2023-04-24T10:51:49.382Z,100376.88
2023-04-24T10:54:26.866Z,100370.80
2023-04-24T10:57:13.516Z,100374.42
2023-04-24T10:59:44.252Z,100368.39
2023-04-24T11:02:16.212Z,100361.72
2023-04-24T11:04:47.448Z,100368.38
2023-04-24T11:07:18.328Z,100368.58
2023-04-24T11:09:49.027Z,100367.10
2023-04-24T11:12:19.865Z,100362.84
2023-04-24T11:15:04.440Z,100364.27
2023-04-24T11:17:35.938Z,100359.04
2023-04-24T11:20:22.845Z,100354.29
2023-04-24T11:22:59.015Z,100357.31
2023-04-24T11:25:31.170Z,100353.30
2023-04-24T11:28:07.302Z,100342.48
2023-04-24T11:30:37.938Z,100337.77
2023-04-24T11:33:08.797Z,100335.43
2023-04-24T11:35:41.745Z,100340.24
2023-04-24T11:38:24.057Z,100335.86
2023-04-24T11:40:56.253Z,100337.12
2023-04-24T11:43:27.223Z,100330.68
2023-04-24T11:45:59.292Z,100324.16
2023-04-24T11:48:30.490Z,100316.05
2023-04-24T11:51:01.671Z,100316.18
2023-04-24T11:53:32.426Z,100313.05
2023-04-24T11:56:07.021Z,100306.05
2023-04-24T11:58:39.332Z,100302.15
2023-04-24T12:01:10.113Z,100301.34
2023-04-24T12:03:41.408Z,100298.32
2023-04-24T12:06:13.768Z,100291.98
2023-04-24T12:08:44.676Z,100287.80
2023-04-24T12:11:16.811Z,100280.87
2023-04-24T12:13:48.446Z,100284.13
2023-04-24T12:16:19.203Z,100279.55
2023-04-24T12:18:50.002Z,100279.37
2023-04-24T12:21:23.093Z,100270.49
2023-04-24T12:23:56.427Z,100265.09
2023-04-24T12:26:27.816Z,100267.50
2023-04-24T12:28:58.571Z,100264.65
2023-04-24T12:31:30.689Z,100260.86
2023-04-24T12:34:01.766Z,100258.06
2023-04-24T12:36:32.515Z,100256.70
2023-04-24T12:39:03.114Z,100256.36
2023-04-24T12:41:34.002Z,100255.35
2023-04-24T12:44:04.770Z,100254.45
2023-04-24T12:46:35.404Z,100245.64
2023-04-24T12:49:06.343Z,100247.41
2023-04-24T12:51:37.174Z,100239.48
2023-04-24T12:54:08.474Z,100232.73
2023-04-24T12:56:40.552Z,100228.51
2023-04-24T12:59:11.414Z,100228.95
2023-04-24T13:01:42.779Z,100226.60
2023-04-24T13:04:13.678Z,100221.53
2023-04-24T13:06:44.539Z,100218.31
2023-04-24T13:09:15.409Z,100216.47
2023-04-24T13:11:46.091Z,100214.11
2023-04-24T13:14:16.935Z,100207.91
2023-04-24T13:16:47.683Z,100207.30
2023-04-24T13:19:18.435Z,100203.81
2023-04-24T13:21:49.390Z,100205.96
2023-04-24T13:24:21.310Z,100203.70
2023-04-24T13:26:52.153Z,100205.04
2023-04-24T13:29:22.820Z,100197.38
2023-04-24T13:31:58.476Z,100192.16
2023-04-24T13:34:30.021Z,100196.67
2023-04-24T13:37:00.843Z,100193.77
2023-04-24T13:39:31.814Z,100190.89
2023-04-24T13:42:04.626Z,100191.95
2023-04-24T13:44:35.963Z,100184.92
2023-04-24T13:47:06.797Z,100187.27
2023-04-24T13:49:37.525Z,100184.84
2023-04-24T13:52:08.580Z,100180.64
2023-04-24T13:54:39.405Z,100183.51
2023-04-24T13:57:10.386Z,100179.77
2023-04-24T13:59:41.199Z,100181.26
2023-04-24T14:02:11.960Z,100179.38
2023-04-24T14:04:45.227Z,100180.55
2023-04-24T14:07:16.116Z,100176.34
2023-04-24T14:09:46.848Z,100168.40
2023-04-24T14:12:19.739Z,100166.34
2023-04-24T14:14:50.642Z,100164.77
2023-04-24T14:17:21.501Z,100164.48
2023-04-24T14:19:53.067Z,100163.71
2023-04-24T14:22:24.054Z,100158.93
2023-04-24T14:24:54.951Z,100157.57
2023-04-24T14:27:26.504Z,100157.22
2023-04-24T14:29:58.206Z,100146.39
2023-04-24T14:32:29.289Z,100143.91
2023-04-24T14:35:00.157Z,100139.30
2023-04-24T14:37:31.333Z,100141.50
2023-04-24T14:42:37.905Z,100135.63
2023-04-24T14:45:10.134Z,100132.56
2023-04-24T14:47:41.012Z,100129.56
2023-04-24T14:50:13.626Z,100127.77
2023-04-24T14:52:44.355Z,100123.06
2023-04-24T14:55:15.567Z,100123.63
2023-04-24T14:57:46.396Z,100116.35
2023-04-24T15:00:18.282Z,100112.82
2023-04-24T15:02:49.133Z,100115.67
2023-04-24T15:05:20.979Z,100115.65
2023-04-24T15:07:51.900Z,100114.23
2023-04-24T15:10:24.105Z,100113.15
2023-04-24T15:12:54.881Z,100109.27
2023-04-24T15:15:25.692Z,100109.05
2023-04-24T15:17:56.686Z,100106.37
2023-04-24T15:20:27.497Z,100103.42
2023-04-24T15:23:00.461Z,100101.74
2023-04-24T15:25:31.112Z,100101.56
2023-04-24T15:28:02.332Z,100099.46
2023-04-24T15:30:33.203Z,100096.23
2023-04-24T15:33:04.103Z,100092.46
2023-04-24T15:35:35.924Z,100090.75
2023-04-24T15:38:07.220Z,100085.77
2023-04-24T15:40:37.903Z,100084.98
2023-04-24T15:43:08.639Z,100077.91
2023-04-24T15:45:39.496Z,100073.64
2023-04-24T15:48:10.331Z,100071.16
2023-04-24T15:50:41.222Z,100071.98
2023-04-24T15:53:12.635Z,100068.16
2023-04-24T15:55:43.269Z,100064.11
2023-04-24T15:58:14.333Z,100057.43
2023-04-24T16:00:45.309Z,100057.77
2023-04-24T16:03:16.293Z,100051.23
2023-04-24T16:05:47.397Z,100049.36
2023-04-24T16:08:18.203Z,100049.13
2023-04-24T16:10:49.173Z,100049.42
2023-04-24T16:13:20.094Z,100049.35
2023-04-24T16:15:52.184Z,100051.44
2023-04-24T16:18:23.433Z,100047.72
2023-04-24T16:20:54.851Z,100049.28
2023-04-24T16:23:25.805Z,100048.31
2023-04-24T16:25:56.606Z,100048.85
2023-04-24T16:28:28.598Z,100052.41
2023-04-24T16:31:03.199Z,100051.54
2023-04-24T16:33:34.229Z,100046.77
2023-04-24T16:36:07.363Z,100048.17
2023-04-24T16:38:38.680Z,100051.71
2023-04-24T16:41:09.722Z,100049.41
2023-04-24T16:43:40.733Z,100047.77
2023-04-24T16:46:11.643Z,100046.98
2023-04-24T16:48:42.622Z,100044.85
2023-04-24T16:51:13.458Z,100047.21
2023-04-24T16:53:44.431Z,100050.17
2023-04-24T16:56:16.166Z,100053.21
2023-04-24T16:58:47.275Z,100053.91
2023-04-24T17:01:18.618Z,100050.81
2023-04-24T17:03:49.508Z,100048.31
2023-04-24T17:06:20.597Z,100050.88
2023-04-24T17:08:51.437Z,100046.02
2023-04-24T17:11:23.181Z,100045.49
2023-04-24T17:13:54.243Z,100046.73
2023-04-24T17:16:25.059Z,100046.90
2023-04-24T17:18:56.108Z,100047.13
2023-04-24T17:21:28.122Z,100046.59
2023-04-24T17:23:58.998Z,100048.34
2023-04-24T17:26:32.408Z,100048.77
2023-04-24T17:29:03.760Z,100050.54
2023-04-24T17:31:34.470Z,100047.21
2023-04-24T17:34:06.546Z,100046.63
2023-04-24T17:36:41.793Z,100045.50
2023-04-24T17:39:12.732Z,100048.05
2023-04-24T17:47:58.937Z,100051.13
2023-04-24T17:50:57.810Z,100051.06
2023-04-24T18:24:22.600Z,100077.96
2023-04-24T18:26:50.898Z,100078.07
2023-04-24T18:29:18.940Z,100077.94
2023-04-24T18:31:47.103Z,100082.03
2023-04-24T18:34:15.167Z,100082.55
2023-04-24T18:36:46.038Z,100083.71
2023-04-24T18:39:17.463Z,100081.48
2023-04-24T18:41:46.922Z,100078.79
2023-04-24T18:44:15.287Z,100080.94
2023-04-24T18:47:05.397Z,100084.73
2023-04-24T18:49:33.884Z,100087.34
2023-04-24T18:52:11.612Z,100089.91
2023-04-24T18:54:40.642Z,100088.64
2023-04-24T18:57:10.176Z,100088.95
2023-04-24T18:59:38.538Z,100087.52
2023-04-24T19:02:07.066Z,100087.58
2023-04-24T19:04:35.495Z,100086.35
2023-04-24T19:07:03.977Z,100089.53
2023-04-24T19:09:32.115Z,100092.33
2023-04-24T19:12:01.431Z,100099.15
2023-04-24T19:14:29.798Z,100102.34
2023-04-24T19:16:58.068Z,100100.10
2023-04-24T19:19:28.223Z,100100.27
2023-04-24T19:38:25.332Z,100087.92
2023-04-24T19:40:56.315Z,100091.31
2023-04-24T19:43:27.377Z,100090.35
2023-04-24T19:45:58.784Z,100087.64
2023-04-24T19:48:34.054Z,100084.45
2023-04-24T19:51:07.956Z,100082.09
2023-04-24T19:53:38.858Z,100086.31
2023-04-24T19:56:12.032Z,100091.36
2023-04-24T19:58:45.932Z,100093.48
2023-04-24T20:01:21.178Z,100096.80
2023-04-24T20:03:52.494Z,100090.83
2023-04-24T20:06:23.499Z,100089.23
2023-04-24T20:08:56.811Z,100089.52
2023-04-24T20:11:27.696Z,100082.60
2023-04-24T20:13:58.584Z,100079.19
2023-04-24T20:16:29.797Z,100080.59
2023-04-24T20:19:01.236Z,100082.21
2023-04-24T20:21:32.577Z,100085.36
2023-04-24T20:24:04.667Z,100082.48
2023-04-24T20:26:36.384Z,100080.52
2023-04-24T20:29:11.361Z,100080.56
2023-04-24T20:31:42.863Z,100074.39
2023-04-24T20:34:13.852Z,100069.41
2023-04-24T20:36:49.412Z,100065.18
2023-04-24T20:39:20.983Z,100068.77
2023-04-24T20:41:52.507Z,100069.86
2023-04-24T20:44:25.456Z,100072.73
2023-04-24T20:46:56.546Z,100075.30
2023-04-24T20:49:29.817Z,100072.73
2023-04-24T20:52:00.697Z,100073.41
2023-04-24T20:54:31.793Z,100068.96
2023-04-24T20:57:03.271Z,100070.77
2023-04-24T20:59:34.232Z,100072.37
2023-04-24T21:02:05.196Z,100069.59
2023-04-24T21:04:38.832Z,100073.69
2023-04-24T21:07:11.930Z,100075.20
2023-04-24T21:09:42.854Z,100073.95
2023-04-24T21:12:13.688Z,100077.02
2023-04-24T21:14:44.472Z,100078.22
2023-04-24T21:17:16.213Z,100078.35
2023-04-24T21:19:47.176Z,100078.11
2023-04-24T21:22:18.000Z,100079.77
2023-04-24T21:24:48.791Z,100080.63
2023-04-24T21:27:19.661Z,100078.42
2023-04-24T21:29:50.690Z,100072.79
2023-04-24T21:32:21.601Z,100067.34
2023-04-24T21:34:52.554Z,100068.04
2023-04-24T21:37:23.358Z,100068.06
2023-04-24T21:39:54.376Z,100063.73
2023-04-24T21:42:25.341Z,100064.29
2023-04-24T21:44:56.248Z,100062.62
2023-04-24T21:47:27.120Z,100057.29
2023-04-24T21:49:57.999Z,100052.59
2023-04-24T21:52:28.797Z,100050.86
2023-04-24T21:54:59.645Z,100052.45
2023-04-24T21:57:30.534Z,100053.93
2023-04-24T22:00:01.497Z,100049.95
2023-04-24T22:02:32.948Z,100046.25
2023-04-24T22:05:04.685Z,100040.75
2023-04-24T22:07:36.592Z,100043.82
2023-04-24T22:10:08.854Z,100039.80
2023-04-24T22:12:39.768Z,100034.77
2023-04-24T22:15:11.042Z,100034.59
2023-04-24T22:17:42.134Z,100032.45
2023-04-24T22:20:14.051Z,100028.08
2023-04-24T22:22:44.913Z,100022.09
2023-04-24T22:25:15.775Z,100016.45
2023-04-24T22:27:46.786Z,100025.36
2023-04-24T22:30:17.710Z,100020.98
2023-04-24T22:32:48.781Z,100012.82
2023-04-24T22:35:20.472Z,100013.86
2023-04-24T22:37:53.301Z,100011.73
2023-04-24T22:40:24.074Z,100004.27
2023-04-24T22:42:54.825Z,100006.91
2023-04-24T22:45:26.295Z,99999.74
2023-04-24T22:47:57.367Z,99995.90
2023-04-24T22:50:29.245Z,99991.77
2023-04-24T22:53:00.107Z,99992.30
2023-04-24T22:55:31.625Z,99991.30
2023-04-24T22:58:02.398Z,99991.69
2023-04-24T23:00:33.259Z,99991.33
2023-04-24T23:03:04.921Z,99992.91
2023-04-24T23:05:36.272Z,99986.10
2023-04-24T23:08:07.229Z,99988.79
2023-04-24T23:10:38.313Z,99984.58
2023-04-24T23:13:09.096Z,99980.86
2023-04-24T23:15:40.147Z,99983.48
2023-04-24T23:18:11.847Z,99979.95
2023-04-24T23:20:43.410Z,99975.87
2023-04-24T23:23:14.193Z,99974.73
2023-04-24T23:25:45.179Z,99974.10
2023-04-24T23:28:15.954Z,99970.35
2023-04-24T23:30:46.943Z,99967.92
2023-04-24T23:33:17.716Z,99960.27
2023-04-24T23:35:48.503Z,99956.73
2023-04-24T23:38:19.317Z,99952.18
2023-04-24T23:40:50.798Z,99947.71
2023-04-24T23:43:21.665Z,99950.46
2023-04-24T23:45:52.698Z,99944.52
2023-04-24T23:48:23.523Z,99939.48
2023-04-24T23:50:54.345Z,99935.92
2023-04-24T23:53:25.185Z,99932.60
2023-04-24T23:55:56.016Z,99932.42
2023-04-24T23:58:26.879Z,99930.75
